Time;durP1;ratioP1;P1;durP2;ratioP2;P2;SDS_P1;SDS_P2;PMS_P1;PMS_P2;Temp;Humidity;BMP_temperature;BMP_pressure;BME280_temperature;BME280_humidity;BME280_pressure;Samples;Min_cycle;Max_cycle;Signal;HPM_P1;HPM_P2
2022/08/10 00:01:22;;;;;;;;;;;;;;;;;;5054912;28;1495;-73
2022/08/10 00:03:47;;;;;;;;;;;;;;;;;;5054525;28;1281;-73
2022/08/10 00:06:12;;;;;;;;;;;;;;;;;;5059945;28;1368;-72
2022/08/10 00:08:37;;;;;;;;;;;;;;;;;;5059450;28;1573;-73
2022/08/10 00:11:03;;;;;;;;;;;;;;;;;;5048935;28;1448;-72
2022/08/10 00:13:28;;;;;;;;;;;;;;;;;;5060494;28;1140;-70
2022/08/10 00:15:53;;;;;;;;;;;;;;;;;;5057816;28;1890;-70
2022/08/10 00:18:18;;;;;;;;;;;;;;;;;;5041414;28;1352;-70
2022/08/10 00:20:43;;;;;;;;;;;;;;;;;;5060892;28;1148;-70
2022/08/10 00:23:09;;;;;;;;;;;;;;;;;;5059863;28;1482;-69
2022/08/10 00:25:34;;;;;;;;;;;;;;;;;;5058598;28;1477;-70
2022/08/10 00:27:59;;;;;;;;;;;;;;;;;;5063093;28;1218;-70
2022/08/10 00:30:25;;;;;;;;;;;;;;;;;;5061856;28;1590;-70
2022/08/10 00:32:50;;;;;;;;;;;;;;;;;;5061975;28;1280;-69
2022/08/10 00:35:15;;;;;;;;;;;;;;;;;;5061904;28;1531;-70
2022/08/10 00:37:40;;;;;;;;;;;;;;;;;;5063532;28;1890;-70
2022/08/10 00:40:06;;;;;;;;;;;;;;;;;;5061436;28;1538;-70
2022/08/10 00:42:31;;;;;;;;;;;;;;;;;;5063567;28;1488;-70
2022/08/10 00:44:56;;;;;;;;;;;;;;;;;;5054156;28;1606;-70
2022/08/10 00:47:21;;;;;;;;;;;;;;;;;;5058606;28;1232;-70
2022/08/10 00:49:47;;;;;;;;;;;;;;;;;;5062269;28;1274;-70
2022/08/10 00:52:13;;;;;;;;;;;;;;;;;;5063162;28;1147;-70
2022/08/10 00:54:39;;;;;;;;;;;;;;;;;;5062159;28;1463;-69
2022/08/10 00:57:05;;;;;;;;;;;;;;;;;;5062348;28;1901;-70
2022/08/10 00:59:31;;;;;;;;;;;;;;;;;;5062481;28;1597;-70
2022/08/10 01:01:56;;;;;;;;;;;;;;;;;;5054365;28;1226;-70
2022/08/10 01:04:21;;;;;;;;;;;;;;;;;;5062516;28;1255;-70
2022/08/10 01:06:54;;;;;;;;;;;;;;;;;;5062564;28;1514;-70
2022/08/10 01:09:23;;;;;;;;;;;;;;;;;;5062210;28;1574;-70
2022/08/10 01:11:54;;;;;;;;;;;;;;;;;;5060619;28;1435;-70
2022/08/10 01:14:37;;;;;;;;;;;;;;;;;;5062809;28;1473;-70
2022/08/10 01:17:09;;;;;;;;;;;;;;;;;;5053259;28;1909;-70
2022/08/10 01:19:34;;;;;;;;;;;;;;;;;;5063083;28;1108;-70
2022/08/10 01:22:06;;;;;;;;;;;;;;;;;;5062687;28;1427;-70
2022/08/10 01:24:50;;;;;;;;;;;;;;;;;;5061712;28;1559;-70
2022/08/10 01:27:25;;;;;;;;;;;;;;;;;;5062291;28;1200;-70
2022/08/10 01:30:00;;;;;;;;;;;;;;;;;;5062509;28;1434;-70
2022/08/10 01:32:39;;;;;;;;;;;;;;;;;;5060723;28;1511;-70
2022/08/10 01:35:04;;;;;;;;;;;;;;;;;;5062018;28;1229;-70
2022/08/10 01:37:32;;;;;;;;;;;;;;;;;;5062594;28;1897;-70
2022/08/10 01:39:59;;;;;;;;;;;;;;;;;;5053469;28;1421;-70
2022/08/10 01:42:24;;;;;;;;;;;;;;;;;;5062375;28;1487;-70
2022/08/10 01:44:56;;;;;;;;;;;;;;;;;;5061237;28;1637;-71
2022/08/10 01:50:09;;;;;;;;;;;;;;;;;;5062110;28;1173;-71
2022/08/10 01:52:36;;;;;;;;;;;;;;;;;;5042184;28;1013;-74
2022/08/10 01:55:01;;;;;;;;;;;;;;;;;;5056955;28;1575;-73
2022/08/10 01:57:29;;;;;;;;;;;;;;;;;;5060190;28;1902;-73
2022/08/10 01:59:56;;;;;;;;;;;;;;;;;;5061786;28;1298;-73
2022/08/10 02:02:22;;;;;;;;;;;;;;;;;;5060685;28;1531;-72
2022/08/10 02:04:49;;;;;;;;;;;;;;;;;;5061749;28;1247;-73
2022/08/10 02:07:19;;;;;;;;;;;;;;;;;;5062219;28;870;-72
2022/08/10 02:09:46;;;;;;;;;;;;;;;;;;5053975;28;1618;-72
2022/08/10 02:12:14;;;;;;;;;;;;;;;;;;5060157;28;1154;-73
2022/08/10 02:14:41;;;;;;;;;;;;;;;;;;5044015;28;1176;-71
2022/08/10 02:17:09;;;;;;;;;;;;;;;;;;5055695;28;1963;-71
2022/08/10 02:19:36;;;;;;;;;;;;;;;;;;5062108;28;1100;-71
2022/08/10 02:22:02;;;;;;;;;;;;;;;;;;5061771;28;1435;-71
2022/08/10 02:24:27;;;;;;;;;;;;;;;;;;5052124;28;1591;-71
2022/08/10 02:26:54;;;;;;;;;;;;;;;;;;5061388;28;1617;-71
2022/08/10 02:29:19;;;;;;;;;;;;;;;;;;5057138;28;1547;-71
2022/08/10 02:31:45;;;;;;;;;;;;;;;;;;5058723;28;1574;-71
2022/08/10 02:34:11;;;;;;;;;;;;;;;;;;5060726;28;1266;-71
2022/08/10 02:36:40;;;;;;;;;;;;;;;;;;5061194;28;1893;-73
2022/08/10 02:39:06;;;;;;;;;;;;;;;;;;5059731;28;1689;-73
2022/08/10 02:41:34;;;;;;;;;;;;;;;;;;5060195;28;1496;-72
2022/08/10 02:44:05;;;;;;;;;;;;;;;;;;5060420;28;1482;-71
2022/08/10 02:46:50;;;;;;;;;;;;;;;;;;5056590;28;1276;-71
2022/08/10 02:49:20;;;;;;;;;;;;;;;;;;5060298;28;1257;-71
2022/08/10 02:51:49;;;;;;;;;;;;;;;;;;5061094;28;1475;-71
2022/08/10 02:54:20;;;;;;;;;;;;;;;;;;5058157;28;1622;-71
2022/08/10 02:56:51;;;;;;;;;;;;;;;;;;5055555;28;1890;-71
2022/08/10 02:59:36;;;;;;;;;;;;;;;;;;5060647;28;1670;-71
2022/08/10 03:02:03;;;;;;;;;;;;;;;;;;5051868;28;1260;-72
2022/08/10 03:04:36;;;;;;;;;;;;;;;;;;5061048;28;1240;-71
2022/08/10 03:07:03;;;;;;;;;;;;;;;;;;5059315;28;1411;-71
2022/08/10 03:09:30;;;;;;;;;;;;;;;;;;5059434;28;1486;-71
2022/08/10 03:11:56;;;;;;;;;;;;;;;;;;5060894;28;1189;-71
2022/08/10 03:14:21;;;;;;;;;;;;;;;;;;5060127;28;1535;-71
2022/08/10 03:16:48;;;;;;;;;;;;;;;;;;5041744;28;1973;-72
2022/08/10 03:19:14;;;;;;;;;;;;;;;;;;5061002;28;1144;-71
2022/08/10 03:21:40;;;;;;;;;;;;;;;;;;5060730;28;1494;-71
2022/08/10 03:24:06;;;;;;;;;;;;;;;;;;5058874;28;1471;-71
2022/08/10 03:26:32;;;;;;;;;;;;;;;;;;5053223;28;1211;-71
2022/08/10 03:28:58;;;;;;;;;;;;;;;;;;5051891;28;1602;-72
2022/08/10 03:31:25;;;;;;;;;;;;;;;;;;5047669;28;1416;-72
2022/08/10 03:33:51;;;;;;;;;;;;;;;;;;5055734;28;1277;-72
2022/08/10 03:36:16;;;;;;;;;;;;;;;;;;5059880;28;1906;-72
2022/08/10 03:38:44;;;;;;;;;;;;;;;;;;5060033;28;1476;-72
2022/08/10 03:41:12;;;;;;;;;;;;;;;;;;5051974;28;1406;-72
2022/08/10 03:43:38;;;;;;;;;;;;;;;;;;5059481;28;1526;-72
2022/08/10 03:46:06;;;;;;;;;;;;;;;;;;5058988;28;1441;-69
2022/08/10 03:48:33;;;;;;;;;;;;;;;;;;5053415;28;1064;-70
2022/08/10 03:51:00;;;;;;;;;;;;;;;;;;5042272;28;1448;-69
2022/08/10 03:53:26;;;;;;;;;;;;;;;;;;5057575;28;1617;-69
2022/08/10 03:55:52;;;;;;;;;;;;;;;;;;5060855;28;1908;-72
2022/08/10 03:58:17;;;;;;;;;;;;;;;;;;5046104;28;1312;-71
2022/08/10 04:00:43;;;;;;;;;;;;;;;;;;5063151;28;1638;-71
2022/08/10 04:03:09;;;;;;;;;;;;;;;;;;5063974;28;1136;-72
2022/08/10 04:05:34;;;;;;;;;;;;;;;;;;5062665;28;1530;-73
2022/08/10 04:08:00;;;;;;;;;;;;;;;;;;5062229;28;1257;-72
2022/08/10 04:10:25;;;;;;;;;;;;;;;;;;5053620;28;1450;-72
2022/08/10 04:12:50;;;;;;;;;;;;;;;;;;5064012;28;1136;-71
2022/08/10 04:15:15;;;;;;;;;;;;;;;;;;5062604;28;1430;-72
2022/08/10 04:17:41;;;;;;;;;;;;;;;;;;5063627;28;1898;-70
2022/08/10 04:20:12;;;;;;;;;;;;;;;;;;5058123;28;1289;-70
2022/08/10 04:22:38;;;;;;;;;;;;;;;;;;5055030;28;1579;-71
2022/08/10 04:25:04;;;;;;;;;;;;;;;;;;5054209;28;1358;-70
2022/08/10 04:27:30;;;;;;;;;;;;;;;;;;5056217;28;1499;-71
2022/08/10 04:29:56;;;;;;;;;;;;;;;;;;5053191;28;1224;-69
2022/08/10 04:32:22;;;;;;;;;;;;;;;;;;5055466;28;1586;-70
2022/08/10 04:34:47;;;;;;;;;;;;;;;;;;5057136;28;1357;-69
2022/08/10 04:37:14;;;;;;;;;;;;;;;;;;5060982;28;1902;-69
2022/08/10 04:39:40;;;;;;;;;;;;;;;;;;5057056;28;1228;-70
2022/08/10 04:42:05;;;;;;;;;;;;;;;;;;5063343;28;1610;-69
2022/08/10 04:44:30;;;;;;;;;;;;;;;;;;5063188;28;1180;-70
2022/08/10 04:46:56;;;;;;;;;;;;;;;;;;5058650;28;1597;-71
2022/08/10 04:49:21;;;;;;;;;;;;;;;;;;5051676;28;1283;-71
2022/08/10 04:51:46;;;;;;;;;;;;;;;;;;5043278;28;890;-71
2022/08/10 04:54:11;;;;;;;;;;;;;;;;;;5043260;28;1216;-71
2022/08/10 04:56:37;;;;;;;;;;;;;;;;;;5055962;28;1909;-71
2022/08/10 04:59:03;;;;;;;;;;;;;;;;;;5062544;28;818;-70
2022/08/10 05:01:31;;;;;;;;;;;;;;;;;;5063058;28;1656;-70
2022/08/10 05:03:56;;;;;;;;;;;;;;;;;;5056637;28;1728;-70
2022/08/10 05:06:21;;;;;;;;;;;;;;;;;;5061340;28;1352;-70
2022/08/10 05:08:46;;;;;;;;;;;;;;;;;;5060576;28;1407;-70
2022/08/10 05:11:11;;;;;;;;;;;;;;;;;;5059914;28;1266;-70
2022/08/10 05:13:37;;;;;;;;;;;;;;;;;;5060014;28;1554;-70
2022/08/10 05:16:02;;;;;;;;;;;;;;;;;;5060025;28;1976;-63
2022/08/10 05:18:27;;;;;;;;;;;;;;;;;;5061579;28;1365;-63
2022/08/10 05:20:52;;;;;;;;;;;;;;;;;;5061890;28;1271;-63
2022/08/10 05:23:17;;;;;;;;;;;;;;;;;;5059340;28;1479;-63
2022/08/10 05:25:43;;;;;;;;;;;;;;;;;;5056272;28;1345;-63
2022/08/10 05:28:08;;;;;;;;;;;;;;;;;;5053687;28;1565;-63
2022/08/10 05:30:33;;;;;;;;;;;;;;;;;;5040287;28;1566;-62
2022/08/10 05:32:58;;;;;;;;;;;;;;;;;;5060425;28;1255;-62
2022/08/10 05:35:24;;;;;;;;;;;;;;;;;;5057692;28;1441;-62
2022/08/10 05:37:51;;;;;;;;;;;;;;;;;;5061161;28;1977;-62
2022/08/10 05:40:16;;;;;;;;;;;;;;;;;;5061028;28;1157;-62
2022/08/10 05:42:41;;;;;;;;;;;;;;;;;;5062013;28;1260;-62
2022/08/10 05:45:13;;;;;;;;;;;;;;;;;;5057989;28;1398;-63
2022/08/10 05:47:38;;;;;;;;;;;;;;;;;;5059519;28;1482;-62
2022/08/10 05:50:03;;;;;;;;;;;;;;;;;;5043733;28;1251;-63
2022/08/10 05:52:28;;;;;;;;;;;;;;;;;;5060820;28;1418;-63
2022/08/10 05:54:54;;;;;;;;;;;;;;;;;;5060927;28;1295;-62
2022/08/10 05:57:21;;;;;;;;;;;;;;;;;;5043053;28;1906;-61
2022/08/10 05:59:50;;;;;;;;;;;;;;;;;;5060549;28;1210;-61
2022/08/10 06:02:20;;;;;;;;;;;;;;;;;;5056070;28;1521;-63
2022/08/10 06:04:46;;;;;;;;;;;;;;;;;;5056209;28;1724;-63
2022/08/10 06:07:13;;;;;;;;;;;;;;;;;;5061142;28;1415;-61
2022/08/10 06:09:38;;;;;;;;;;;;;;;;;;5056523;28;1520;-60
2022/08/10 06:12:04;;;;;;;;;;;;;;;;;;5042441;28;1461;-62
2022/08/10 06:17:15;;;;;;;;;;;;;;;;;;5058327;28;1906;-62
2022/08/10 06:19:42;;;;;;;;;;;;;;;;;;5060503;28;1415;-62
2022/08/10 06:22:07;;;;;;;;;;;;;;;;;;5058085;28;1255;-62
2022/08/10 06:24:36;;;;;;;;;;;;;;;;;;5061064;28;1266;-62
2022/08/10 06:27:01;;;;;;;;;;;;;;;;;;5060495;28;1329;-62
2022/08/10 06:29:29;;;;;;;;;;;;;;;;;;5061105;28;1216;-62
2022/08/10 06:31:55;;;;;;;;;;;;;;;;;;5054126;28;1276;-62
2022/08/10 06:34:25;;;;;;;;;;;;;;;;;;5037335;28;1427;-62
2022/08/10 06:36:52;;;;;;;;;;;;;;;;;;5059676;28;1897;-62
2022/08/10 06:39:18;;;;;;;;;;;;;;;;;;5060032;28;1253;-62
2022/08/10 06:41:45;;;;;;;;;;;;;;;;;;5060286;28;1235;-63
2022/08/10 06:44:14;;;;;;;;;;;;;;;;;;5058518;28;1985;-62
2022/08/10 06:46:41;;;;;;;;;;;;;;;;;;5037971;28;1287;-62
2022/08/10 06:49:06;;;;;;;;;;;;;;;;;;5058920;28;1883;-63
2022/08/10 06:51:36;;;;;;;;;;;;;;;;;;5057892;28;1239;-62
2022/08/10 06:54:03;;;;;;;;;;;;;;;;;;5058619;28;1598;-62
2022/08/10 06:56:31;;;;;;;;;;;;;;;;;;5057743;28;1897;-62
2022/08/10 06:58:58;;;;;;;;;;;;;;;;;;5051473;28;1348;-62
2022/08/10 07:01:28;;;;;;;;;;;;;;;;;;5057089;28;1846;-62
2022/08/10 07:04:01;;;;;;;;;;;;;;;;;;5034919;28;1217;-62
2022/08/10 07:06:26;;;;;;;;;;;;;;;;;;5059415;28;1308;-62
2022/08/10 07:08:52;;;;;;;;;;;;;;;;;;5060409;28;1302;-62
2022/08/10 07:11:18;;;;;;;;;;;;;;;;;;5058968;28;1251;-62
2022/08/10 07:13:45;;;;;;;;;;;;;;;;;;5060208;28;1330;-62
2022/08/10 07:16:11;;;;;;;;;;;;;;;;;;5053505;28;1883;-62
2022/08/10 07:18:37;;;;;;;;;;;;;;;;;;5060405;28;1231;-62
2022/08/10 07:21:03;;;;;;;;;;;;;;;;;;5060308;28;1169;-60
2022/08/10 07:23:28;;;;;;;;;;;;;;;;;;5060270;28;1422;-61
2022/08/10 07:25:55;;;;;;;;;;;;;;;;;;5055676;28;1333;-61
2022/08/10 07:28:21;;;;;;;;;;;;;;;;;;5058368;28;1335;-61
2022/08/10 07:30:47;;;;;;;;;;;;;;;;;;5042627;28;1604;-62
2022/08/10 07:33:15;;;;;;;;;;;;;;;;;;5062124;28;1370;-62
2022/08/10 07:35:42;;;;;;;;;;;;;;;;;;5062960;28;1330;-63
2022/08/10 07:38:09;;;;;;;;;;;;;;;;;;5063261;28;1890;-62
2022/08/10 07:40:35;;;;;;;;;;;;;;;;;;5038052;28;1745;-62
2022/08/10 07:43:00;;;;;;;;;;;;;;;;;;5044561;28;1402;-62
2022/08/10 07:45:27;;;;;;;;;;;;;;;;;;5060099;28;1358;-62
2022/08/10 07:48:19;;;;;;;;;;;;;;;;;;5062689;28;1527;-62
2022/08/10 07:50:45;;;;;;;;;;;;;;;;;;5057141;28;1546;-62
2022/08/10 07:53:17;;;;;;;;;;;;;;;;;;5063361;28;1524;-62
2022/08/10 07:55:45;;;;;;;;;;;;;;;;;;5042114;28;1315;-62
2022/08/10 07:58:11;;;;;;;;;;;;;;;;;;5062529;28;1248;-62
2022/08/10 08:00:37;;;;;;;;;;;;;;;;;;5060154;28;1300;-62
2022/08/10 08:03:06;;;;;;;;;;;;;;;;;;5059934;28;1312;-62
2022/08/10 08:05:32;;;;;;;;;;;;;;;;;;5059338;28;1341;-61
2022/08/10 08:07:58;;;;;;;;;;;;;;;;;;5061671;28;1298;-62
2022/08/10 08:10:25;;;;;;;;;;;;;;;;;;5059854;28;1491;-62
2022/08/10 08:12:51;;;;;;;;;;;;;;;;;;5063087;28;1180;-62
2022/08/10 08:15:22;;;;;;;;;;;;;;;;;;5044585;28;1332;-63
2022/08/10 08:17:47;;;;;;;;;;;;;;;;;;5043663;28;1893;-62
2022/08/10 08:20:14;;;;;;;;;;;;;;;;;;5062184;28;1540;-62
2022/08/10 08:22:40;;;;;;;;;;;;;;;;;;5059860;28;1483;-62
2022/08/10 08:25:05;;;;;;;;;;;;;;;;;;5061544;28;1324;-63
2022/08/10 08:27:31;;;;;;;;;;;;;;;;;;5062210;28;1609;-62
2022/08/10 08:29:56;;;;;;;;;;;;;;;;;;5060791;28;1395;-62
2022/08/10 08:32:23;;;;;;;;;;;;;;;;;;5059952;28;1470;-62
2022/08/10 08:34:53;;;;;;;;;;;;;;;;;;5061897;28;1454;-62
2022/08/10 08:37:19;;;;;;;;;;;;;;;;;;5061114;28;1975;-62
2022/08/10 08:39:44;;;;;;;;;;;;;;;;;;5062844;28;1138;-63
2022/08/10 08:42:28;;;;;;;;;;;;;;;;;;5061408;28;1267;-63
2022/08/10 08:44:59;;;;;;;;;;;;;;;;;;5045015;28;1388;-61
2022/08/10 08:47:43;;;;;;;;;;;;;;;;;;5055831;28;1597;-60
2022/08/10 08:50:08;;;;;;;;;;;;;;;;;;5061269;28;1515;-63
2022/08/10 08:52:34;;;;;;;;;;;;;;;;;;5060549;28;1372;-63
2022/08/10 08:55:14;;;;;;;;;;;;;;;;;;5059739;28;1377;-63
2022/08/10 08:57:42;;;;;;;;;;;;;;;;;;5060652;28;1975;-62
2022/08/10 09:00:08;;;;;;;;;;;;;;;;;;5057975;28;1248;-61
2022/08/10 09:02:36;;;;;;;;;;;;;;;;;;5062333;28;1311;-62
2022/08/10 09:05:18;;;;;;;;;;;;;;;;;;5056784;28;1351;-61
2022/08/10 09:08:09;;;;;;;;;;;;;;;;;;5056514;28;1344;-61
2022/08/10 09:10:44;;;;;;;;;;;;;;;;;;5060700;28;1621;-62
2022/08/10 09:13:25;;;;;;;;;;;;;;;;;;5060391;28;1295;-62
2022/08/10 09:16:00;;;;;;;;;;;;;;;;;;5061163;28;1898;-62
2022/08/10 09:18:44;;;;;;;;;;;;;;;;;;5062353;28;1267;-62
2022/08/10 09:21:16;;;;;;;;;;;;;;;;;;5059950;28;1288;-62
2022/08/10 09:23:59;;;;;;;;;;;;;;;;;;5060801;28;1299;-62
2022/08/10 09:26:30;;;;;;;;;;;;;;;;;;5043158;28;1360;-62
2022/08/10 09:28:57;;;;;;;;;;;;;;;;;;5056912;28;1468;-64
2022/08/10 09:31:23;;;;;;;;;;;;;;;;;;5056299;28;1496;-64
2022/08/10 09:33:48;;;;;;;;;;;;;;;;;;5058545;28;1211;-64
2022/08/10 09:36:17;;;;;;;;;;;;;;;;;;5057814;28;1902;-63
2022/08/10 09:38:47;;;;;;;;;;;;;;;;;;5060246;28;1291;-63
2022/08/10 09:41:38;;;;;;;;;;;;;;;;;;5060125;28;1448;-63
2022/08/10 09:44:18;;;;;;;;;;;;;;;;;;5057525;28;1206;-63
2022/08/10 09:47:02;;;;;;;;;;;;;;;;;;5059865;28;1373;-63
2022/08/10 09:49:37;;;;;;;;;;;;;;;;;;5059136;28;1249;-63
2022/08/10 09:52:13;;;;;;;;;;;;;;;;;;5061300;28;1207;-63
2022/08/10 09:54:52;;;;;;;;;;;;;;;;;;5060218;28;1291;-63
2022/08/10 09:57:30;;;;;;;;;;;;;;;;;;5058017;28;1974;-63
2022/08/10 10:00:08;;;;;;;;;;;;;;;;;;5060000;28;1293;-63
2022/08/10 10:02:37;;;;;;;;;;;;;;;;;;5058698;28;1233;-63
2022/08/10 10:05:11;;;;;;;;;;;;;;;;;;5059351;28;1366;-64
2022/08/10 10:07:38;;;;;;;;;;;;;;;;;;5059213;28;1212;-64
2022/08/10 10:10:03;;;;;;;;;;;;;;;;;;5061117;28;1349;-62
2022/08/10 10:12:49;;;;;;;;;;;;;;;;;;5060942;28;1460;-63
2022/08/10 10:15:30;;;;;;;;;;;;;;;;;;5058640;28;1439;-63
2022/08/10 10:18:01;;;;;;;;;;;;;;;;;;5060172;28;1906;-63
2022/08/10 10:20:40;;;;;;;;;;;;;;;;;;5047677;28;1646;-64
2022/08/10 10:23:08;;;;;;;;;;;;;;;;;;5057977;28;1507;-62
2022/08/10 10:25:39;;;;;;;;;;;;;;;;;;5053868;28;1374;-62
2022/08/10 10:28:05;;;;;;;;;;;;;;;;;;5061632;28;1543;-63
2022/08/10 10:30:34;;;;;;;;;;;;;;;;;;5061169;28;1471;-63
2022/08/10 10:33:14;;;;;;;;;;;;;;;;;;5051113;28;1323;-64
2022/08/10 10:35:53;;;;;;;;;;;;;;;;;;5053385;28;1492;-62
2022/08/10 10:38:21;;;;;;;;;;;;;;;;;;5060417;28;1507;-64
2022/08/10 10:40:51;;;;;;;;;;;;;;;;;;5056542;28;1311;-64
2022/08/10 10:43:35;;;;;;;;;;;;;;;;;;5061364;28;1263;-64
2022/08/10 10:46:00;;;;;;;;;;;;;;;;;;5061018;28;1203;-63
2022/08/10 10:48:46;;;;;;;;;;;;;;;;;;5058990;28;1507;-64
2022/08/10 10:51:17;;;;;;;;;;;;;;;;;;5060742;28;1230;-64
2022/08/10 10:53:59;;;;;;;;;;;;;;;;;;5063893;28;1781;-63
2022/08/10 10:56:27;;;;;;;;;;;;;;;;;;5058539;28;1898;-63
2022/08/10 10:59:01;;;;;;;;;;;;;;;;;;5060793;28;1227;-63
2022/08/10 11:01:36;;;;;;;;;;;;;;;;;;5060400;28;1683;-64
2022/08/10 11:04:01;;;;;;;;;;;;;;;;;;5042662;28;1421;-63
2022/08/10 11:06:26;;;;;;;;;;;;;;;;;;5058436;28;1358;-63
2022/08/10 11:08:54;;;;;;;;;;;;;;;;;;5056237;28;1297;-63
2022/08/10 11:11:22;;;;;;;;;;;;;;;;;;5055333;28;1479;-63
2022/08/10 11:13:50;;;;;;;;;;;;;;;;;;5060007;28;1362;-63
2022/08/10 11:16:18;;;;;;;;;;;;;;;;;;5059324;28;1897;-63
2022/08/10 11:18:53;;;;;;;;;;;;;;;;;;5060092;28;1259;-62
2022/08/10 11:21:39;;;;;;;;;;;;;;;;;;5056564;28;1244;-63
2022/08/10 11:24:08;;;;;;;;;;;;;;;;;;5057603;28;1229;-63
2022/08/10 11:26:45;;;;;;;;;;;;;;;;;;5059885;28;1243;-62
2022/08/10 11:29:21;;;;;;;;;;;;;;;;;;5058139;28;1245;-61
2022/08/10 11:31:49;;;;;;;;;;;;;;;;;;5057837;28;1241;-62
2022/08/10 11:34:20;;;;;;;;;;;;;;;;;;5058513;28;1392;-62
2022/08/10 11:36:52;;;;;;;;;;;;;;;;;;5057752;28;1901;-61
2022/08/10 11:39:17;;;;;;;;;;;;;;;;;;5056713;28;1498;-62
2022/08/10 11:41:43;;;;;;;;;;;;;;;;;;5056916;28;1240;-62
2022/08/10 11:44:28;;;;;;;;;;;;;;;;;;5043627;28;1350;-63
2022/08/10 11:47:15;;;;;;;;;;;;;;;;;;5054061;28;1280;-63
2022/08/10 11:49:55;;;;;;;;;;;;;;;;;;5056996;28;1344;-63
2022/08/10 11:52:38;;;;;;;;;;;;;;;;;;5056573;28;1292;-63
2022/08/10 11:55:16;;;;;;;;;;;;;;;;;;5058394;28;1325;-63
2022/08/10 11:57:42;;;;;;;;;;;;;;;;;;5053665;28;1955;-63
2022/08/10 12:00:08;;;;;;;;;;;;;;;;;;5059333;28;1180;-63
2022/08/10 12:02:40;;;;;;;;;;;;;;;;;;5057943;28;1538;-63
2022/08/10 12:05:07;;;;;;;;;;;;;;;;;;5051438;28;1302;-62
2022/08/10 12:07:33;;;;;;;;;;;;;;;;;;5059591;28;1303;-63
2022/08/10 12:09:59;;;;;;;;;;;;;;;;;;5059810;28;1267;-62
2022/08/10 12:12:26;;;;;;;;;;;;;;;;;;5059531;28;1844;-62
2022/08/10 12:14:56;;;;;;;;;;;;;;;;;;5059975;28;1239;-62
2022/08/10 12:17:31;;;;;;;;;;;;;;;;;;5060171;28;1882;-63
2022/08/10 12:20:09;;;;;;;;;;;;;;;;;;5042650;28;1355;-63
2022/08/10 12:22:37;;;;;;;;;;;;;;;;;;5060631;28;1240;-63
2022/08/10 12:25:06;;;;;;;;;;;;;;;;;;5062474;28;1360;-63
2022/08/10 12:27:51;;;;;;;;;;;;;;;;;;5062320;28;1594;-63
2022/08/10 12:30:19;;;;;;;;;;;;;;;;;;5056134;28;1331;-63
2022/08/10 12:33:03;;;;;;;;;;;;;;;;;;5062841;28;1255;-63
2022/08/10 12:35:57;;;;;;;;;;;;;;;;;;5060379;28;1365;-63
2022/08/10 12:38:35;;;;;;;;;;;;;;;;;;5045071;28;1494;-62
2022/08/10 12:41:07;;;;;;;;;;;;;;;;;;5059854;28;1403;-62
2022/08/10 12:43:32;;;;;;;;;;;;;;;;;;5059561;28;1295;-63
2022/08/10 12:46:16;;;;;;;;;;;;;;;;;;5057220;28;1515;-63
2022/08/10 12:49:00;;;;;;;;;;;;;;;;;;5062084;28;1786;-63
2022/08/10 12:51:29;;;;;;;;;;;;;;;;;;5059347;28;1371;-62
2022/08/10 12:54:05;;;;;;;;;;;;;;;;;;5058320;28;1251;-62
2022/08/10 12:56:32;;;;;;;;;;;;;;;;;;5058211;28;1898;-63
2022/08/10 12:58:58;;;;;;;;;;;;;;;;;;5059657;28;1443;-63
2022/08/10 13:01:34;;;;;;;;;;;;;;;;;;5055548;28;1239;-63
2022/08/10 13:04:01;;;;;;;;;;;;;;;;;;5059725;28;1271;-63
2022/08/10 13:06:29;;;;;;;;;;;;;;;;;;5055648;28;1351;-63
2022/08/10 13:09:09;;;;;;;;;;;;;;;;;;5061808;28;1307;-63
2022/08/10 13:11:45;;;;;;;;;;;;;;;;;;5043494;28;1368;-63
2022/08/10 13:14:21;;;;;;;;;;;;;;;;;;5059789;28;1384;-63
2022/08/10 13:16:48;;;;;;;;;;;;;;;;;;5059627;28;1890;-64
2022/08/10 13:19:14;;;;;;;;;;;;;;;;;;5056010;28;1646;-62
2022/08/10 13:21:40;;;;;;;;;;;;;;;;;;5058206;28;1233;-63
2022/08/10 13:24:16;;;;;;;;;;;;;;;;;;5056176;28;1325;-63
2022/08/10 13:26:46;;;;;;;;;;;;;;;;;;5058281;28;1474;-64
2022/08/10 13:29:13;;;;;;;;;;;;;;;;;;5057899;28;1510;-63
2022/08/10 13:31:40;;;;;;;;;;;;;;;;;;5056317;28;1788;-64
2022/08/10 13:34:07;;;;;;;;;;;;;;;;;;5059785;28;1477;-63
2022/08/10 13:36:37;;;;;;;;;;;;;;;;;;5061271;28;1898;-63
2022/08/10 13:39:03;;;;;;;;;;;;;;;;;;5056812;28;1192;-62
2022/08/10 13:41:30;;;;;;;;;;;;;;;;;;5062063;28;1203;-62
2022/08/10 13:43:57;;;;;;;;;;;;;;;;;;5062142;28;1266;-62
2022/08/10 13:46:22;;;;;;;;;;;;;;;;;;5059811;28;1228;-62
2022/08/10 13:48:48;;;;;;;;;;;;;;;;;;5060967;28;1470;-63
2022/08/10 13:51:15;;;;;;;;;;;;;;;;;;5043424;28;1218;-63
2022/08/10 13:53:41;;;;;;;;;;;;;;;;;;5061671;28;1535;-63
2022/08/10 13:56:09;;;;;;;;;;;;;;;;;;5042393;28;1925;-63
2022/08/10 13:58:39;;;;;;;;;;;;;;;;;;5060180;28;1415;-63
2022/08/10 14:01:12;;;;;;;;;;;;;;;;;;5058054;28;1257;-61
2022/08/10 14:03:39;;;;;;;;;;;;;;;;;;5060373;28;1293;-63
2022/08/10 14:06:05;;;;;;;;;;;;;;;;;;5058476;28;1689;-62
2022/08/10 14:08:31;;;;;;;;;;;;;;;;;;5061196;28;1435;-62
2022/08/10 14:11:04;;;;;;;;;;;;;;;;;;5060500;28;1303;-63
2022/08/10 14:13:31;;;;;;;;;;;;;;;;;;5057295;28;1301;-63
2022/08/10 14:15:57;;;;;;;;;;;;;;;;;;5041925;28;1366;-63
2022/08/10 14:18:23;;;;;;;;;;;;;;;;;;5060321;28;1897;-63
2022/08/10 14:20:49;;;;;;;;;;;;;;;;;;5043048;28;1399;-62
2022/08/10 14:23:14;;;;;;;;;;;;;;;;;;5042181;28;1360;-62
2022/08/10 14:25:59;;;;;;;;;;;;;;;;;;5057316;28;1356;-63
2022/08/10 14:28:26;;;;;;;;;;;;;;;;;;5057812;28;1297;-62
2022/08/10 14:31:03;;;;;;;;;;;;;;;;;;5058569;28;1269;-62
2022/08/10 14:33:29;;;;;;;;;;;;;;;;;;5041332;28;1337;-63
2022/08/10 14:35:54;;;;;;;;;;;;;;;;;;5058635;28;1346;-63
2022/08/10 14:38:21;;;;;;;;;;;;;;;;;;5061004;28;1951;-63
2022/08/10 14:40:52;;;;;;;;;;;;;;;;;;5059934;28;1396;-63
2022/08/10 14:43:22;;;;;;;;;;;;;;;;;;5060949;28;1140;-63
2022/08/10 14:45:53;;;;;;;;;;;;;;;;;;5056551;28;1365;-64
2022/08/10 14:48:23;;;;;;;;;;;;;;;;;;5060201;28;1099;-63
2022/08/10 14:50:52;;;;;;;;;;;;;;;;;;5060743;28;1342;-62
2022/08/10 14:53:21;;;;;;;;;;;;;;;;;;5060696;28;1318;-64
2022/08/10 14:55:52;;;;;;;;;;;;;;;;;;5041856;28;1382;-64
2022/08/10 14:58:21;;;;;;;;;;;;;;;;;;5045990;28;1897;-62
2022/08/10 15:00:48;;;;;;;;;;;;;;;;;;5060907;28;1303;-63
2022/08/10 15:03:15;;;;;;;;;;;;;;;;;;5060868;28;1204;-64
2022/08/10 15:05:40;;;;;;;;;;;;;;;;;;5059160;28;1409;-61
2022/08/10 15:08:07;;;;;;;;;;;;;;;;;;5057983;28;1485;-63
2022/08/10 15:10:32;;;;;;;;;;;;;;;;;;5060486;28;1704;-63
2022/08/10 15:12:58;;;;;;;;;;;;;;;;;;5058186;28;1220;-63
2022/08/10 15:15:25;;;;;;;;;;;;;;;;;;5042356;28;1359;-63
2022/08/10 15:17:51;;;;;;;;;;;;;;;;;;5043322;28;1874;-63
2022/08/10 15:20:18;;;;;;;;;;;;;;;;;;5059547;28;1287;-63
2022/08/10 15:23:07;;;;;;;;;;;;;;;;;;5060578;28;1236;-63
2022/08/10 15:25:37;;;;;;;;;;;;;;;;;;5046237;28;1348;-63
2022/08/10 15:28:04;;;;;;;;;;;;;;;;;;5058320;28;1291;-62
2022/08/10 15:30:37;;;;;;;;;;;;;;;;;;5056042;28;1351;-62
2022/08/10 15:38:32;;;;;;;;;;;;;;;;;;5058867;28;1260;-63
2022/08/10 15:40:58;;;;;;;;;;;;;;;;;;5060457;28;1379;-63
2022/08/10 15:43:30;;;;;;;;;;;;;;;;;;5060820;28;932;-63
2022/08/10 15:46:01;;;;;;;;;;;;;;;;;;5059473;28;1322;-62
2022/08/10 15:48:29;;;;;;;;;;;;;;;;;;5060493;28;890;-62
2022/08/10 15:50:57;;;;;;;;;;;;;;;;;;5060418;28;1522;-62
2022/08/10 15:53:22;;;;;;;;;;;;;;;;;;5045999;28;1613;-62
2022/08/10 15:55:53;;;;;;;;;;;;;;;;;;5063031;28;1417;-62
2022/08/10 15:58:28;;;;;;;;;;;;;;;;;;5063086;28;1961;-62
2022/08/10 16:01:04;;;;;;;;;;;;;;;;;;5062298;28;1448;-62
2022/08/10 16:03:31;;;;;;;;;;;;;;;;;;5063348;28;1471;-63
2022/08/10 16:05:57;;;;;;;;;;;;;;;;;;5045498;28;1538;-63
2022/08/10 16:08:24;;;;;;;;;;;;;;;;;;5046088;28;910;-62
2022/08/10 16:10:58;;;;;;;;;;;;;;;;;;5043501;28;1458;-62
2022/08/10 16:13:28;;;;;;;;;;;;;;;;;;5063397;28;1263;-63
2022/08/10 16:15:55;;;;;;;;;;;;;;;;;;5063827;28;1250;-62
2022/08/10 16:18:24;;;;;;;;;;;;;;;;;;5060679;28;1905;-62
2022/08/10 16:20:50;;;;;;;;;;;;;;;;;;5062327;28;1556;-62
2022/08/10 16:23:20;;;;;;;;;;;;;;;;;;5061859;28;1311;-62
2022/08/10 16:25:49;;;;;;;;;;;;;;;;;;5063410;28;1353;-62
2022/08/10 16:28:15;;;;;;;;;;;;;;;;;;5062959;28;1444;-62
2022/08/10 16:30:50;;;;;;;;;;;;;;;;;;5062961;28;1720;-62
2022/08/10 16:33:17;;;;;;;;;;;;;;;;;;5063189;28;1573;-62
2022/08/10 16:35:47;;;;;;;;;;;;;;;;;;5062537;28;1491;-62
2022/08/10 16:38:13;;;;;;;;;;;;;;;;;;5062925;28;1897;-62
2022/08/10 16:40:39;;;;;;;;;;;;;;;;;;5062730;28;1484;-62
2022/08/10 16:43:06;;;;;;;;;;;;;;;;;;5063453;28;1192;-62
2022/08/10 16:45:34;;;;;;;;;;;;;;;;;;5063139;28;1191;-63
2022/08/10 16:48:00;;;;;;;;;;;;;;;;;;5063162;28;827;-62
2022/08/10 16:50:27;;;;;;;;;;;;;;;;;;5062843;28;1538;-62
2022/08/10 16:52:53;;;;;;;;;;;;;;;;;;5060929;28;1597;-64
2022/08/10 16:55:20;;;;;;;;;;;;;;;;;;5062586;28;1308;-62
2022/08/10 16:57:46;;;;;;;;;;;;;;;;;;5062963;28;1957;-63
2022/08/10 17:00:11;;;;;;;;;;;;;;;;;;5061956;28;1796;-63
2022/08/10 17:02:39;;;;;;;;;;;;;;;;;;5062107;28;1503;-63
2022/08/10 17:05:06;;;;;;;;;;;;;;;;;;5060348;28;1474;-63
2022/08/10 17:07:31;;;;;;;;;;;;;;;;;;5057920;28;1438;-63
2022/08/10 17:09:57;;;;;;;;;;;;;;;;;;5061061;28;1454;-64
2022/08/10 17:12:24;;;;;;;;;;;;;;;;;;5059350;28;1404;-63
2022/08/10 17:14:51;;;;;;;;;;;;;;;;;;5043264;28;1618;-63
2022/08/10 17:17:20;;;;;;;;;;;;;;;;;;5058384;28;1897;-63
2022/08/10 17:19:46;;;;;;;;;;;;;;;;;;5057321;28;1533;-64
2022/08/10 17:22:19;;;;;;;;;;;;;;;;;;5059140;28;1759;-63
2022/08/10 17:24:45;;;;;;;;;;;;;;;;;;5049420;28;1469;-63
2022/08/10 17:27:11;;;;;;;;;;;;;;;;;;5059212;28;1425;-63